createdAt,value
2023-04-18T00:01:44.642Z,8.98
2023-04-18T00:04:12.067Z,9.05
2023-04-18T00:06:39.010Z,9.18
2023-04-18T00:09:05.890Z,8.55
2023-04-18T00:11:32.606Z,8.50
2023-04-18T00:13:59.609Z,9.48
2023-04-18T00:16:28.330Z,8.75
2023-04-18T00:18:55.533Z,9.63
2023-04-18T00:21:22.756Z,8.60
2023-04-18T00:23:49.441Z,8.87
2023-04-18T00:26:15.985Z,8.90
2023-04-18T00:28:42.597Z,8.70
2023-04-18T00:31:09.270Z,8.43
2023-04-18T00:33:35.836Z,8.93
2023-04-18T00:36:02.452Z,9.10
2023-04-18T00:38:28.962Z,9.23
2023-04-18T00:40:55.571Z,8.85
2023-04-18T00:43:25.367Z,8.68
2023-04-18T00:45:52.570Z,9.43
2023-04-18T00:48:19.201Z,8.90
2023-04-18T00:50:45.783Z,8.38
2023-04-18T00:53:13.405Z,9.05
2023-04-18T00:55:41.204Z,9.10
2023-04-18T00:58:08.239Z,9.73
2023-04-18T01:00:34.890Z,9.37
2023-04-18T01:03:01.650Z,8.80
2023-04-18T01:05:28.385Z,9.57
2023-04-18T01:08:01.036Z,9.48
2023-04-18T01:10:29.105Z,9.15
2023-04-18T01:13:16.082Z,9.30
2023-04-18T01:15:44.098Z,8.80
2023-04-18T01:18:11.969Z,10.57
2023-04-18T01:20:41.555Z,9.77
2023-04-18T01:23:10.552Z,9.35
2023-04-18T01:25:37.511Z,8.90
2023-04-18T01:28:04.690Z,9.95
2023-04-18T01:30:31.211Z,9.10
2023-04-18T01:32:57.795Z,9.70
2023-04-18T01:35:24.328Z,10.30
2023-04-18T01:37:50.883Z,9.13
2023-04-18T01:40:17.467Z,9.57
2023-04-18T01:42:44.095Z,10.32
2023-04-18T01:45:12.858Z,9.77
2023-04-18T01:47:39.724Z,9.85
2023-04-18T01:50:07.023Z,9.83
2023-04-18T01:52:33.812Z,10.38
2023-04-18T01:55:02.328Z,10.20
2023-04-18T01:57:29.102Z,10.05
2023-04-18T01:59:55.658Z,9.88
2023-04-18T02:02:22.318Z,10.37
2023-04-18T02:04:48.951Z,10.63
2023-04-18T02:07:15.532Z,10.52
2023-04-18T02:09:42.084Z,10.95
2023-04-18T02:12:08.745Z,10.52
2023-04-18T02:14:36.406Z,10.30
2023-04-18T02:17:03.003Z,10.27
2023-04-18T02:19:30.493Z,9.85
2023-04-18T02:21:57.071Z,10.57
2023-04-18T02:24:23.716Z,10.57
2023-04-18T02:26:50.415Z,10.70
2023-04-18T02:29:17.168Z,10.77
2023-04-18T02:31:43.684Z,10.65
2023-04-18T02:34:10.437Z,10.75
2023-04-18T02:36:37.007Z,11.00
2023-04-18T02:39:05.939Z,9.70
2023-04-18T02:41:32.523Z,10.57
2023-04-18T02:43:59.168Z,10.85
2023-04-18T02:46:25.875Z,10.65
2023-04-18T02:48:52.496Z,10.70
2023-04-18T02:51:20.141Z,11.47
2023-04-18T02:53:46.906Z,11.43
2023-04-18T02:56:17.187Z,10.23
2023-04-18T02:58:43.763Z,11.25
2023-04-18T03:01:10.333Z,11.02
2023-04-18T03:03:36.907Z,10.67
2023-04-18T03:06:03.585Z,11.10
2023-04-18T03:08:30.326Z,11.10
2023-04-18T03:10:56.906Z,10.57
2023-04-18T03:13:23.402Z,11.32
2023-04-18T03:15:50.017Z,10.50
2023-04-18T03:18:16.743Z,11.73
2023-04-18T03:20:43.483Z,11.57
2023-04-18T03:23:10.355Z,10.90
2023-04-18T03:25:37.321Z,11.55
2023-04-18T03:28:06.622Z,11.57
2023-04-18T03:30:33.183Z,11.98
2023-04-18T03:33:03.005Z,11.32
2023-04-18T03:35:29.653Z,11.93
2023-04-18T03:37:56.234Z,11.85
2023-04-18T03:40:22.824Z,9.97
2023-04-18T03:42:49.328Z,11.98
2023-04-18T03:45:16.792Z,11.02
2023-04-18T03:47:43.313Z,10.88
2023-04-18T03:50:10.236Z,11.38
2023-04-18T03:52:36.867Z,11.47
2023-04-18T03:55:03.678Z,11.00
2023-04-18T03:57:30.494Z,12.27
2023-04-18T03:59:57.065Z,10.32
2023-04-18T04:02:23.809Z,10.85
2023-04-18T04:04:50.443Z,12.23
2023-04-18T04:07:17.053Z,11.98
2023-04-18T04:09:43.606Z,13.13
2023-04-18T04:12:10.119Z,12.60
2023-04-18T04:14:36.621Z,13.20
2023-04-18T04:17:03.234Z,13.03
2023-04-18T04:19:29.728Z,13.48
2023-04-18T04:21:56.308Z,15.25
2023-04-18T04:24:22.842Z,13.98
2023-04-18T04:26:50.853Z,13.82
2023-04-18T04:29:17.831Z,15.03
2023-04-18T04:31:44.657Z,15.18
2023-04-18T04:34:11.435Z,16.02
2023-04-18T04:36:38.086Z,14.90
2023-04-18T04:39:05.413Z,16.02
2023-04-18T04:41:31.938Z,15.43
2023-04-18T04:43:59.697Z,17.15
2023-04-18T04:46:29.568Z,14.85
2023-04-18T04:48:56.659Z,15.07
2023-04-18T04:51:23.548Z,15.07
2023-04-18T04:53:50.156Z,15.13
2023-04-18T04:56:16.735Z,15.95
2023-04-18T04:58:43.310Z,15.38
2023-04-18T05:01:09.861Z,15.40
2023-04-18T05:03:38.283Z,18.83
2023-04-18T05:06:05.410Z,17.90
2023-04-18T05:08:31.973Z,20.08
2023-04-18T05:10:58.523Z,24.10
2023-04-18T05:13:25.155Z,18.23
2023-04-18T05:15:52.696Z,18.83
2023-04-18T05:18:19.298Z,19.73
2023-04-18T05:20:45.838Z,14.68
2023-04-18T05:23:12.514Z,14.18
2023-04-18T05:25:39.530Z,13.65
2023-04-18T05:28:06.127Z,15.65
2023-04-18T05:30:32.734Z,17.83
2023-04-18T05:32:59.316Z,17.65
2023-04-18T05:35:26.325Z,15.43
2023-04-18T05:37:52.868Z,13.40
2023-04-18T05:40:19.470Z,14.00
2023-04-18T05:42:46.012Z,13.03
2023-04-18T05:45:12.581Z,13.38
2023-04-18T05:47:41.717Z,13.80
2023-04-18T05:50:08.995Z,13.13
2023-04-18T05:52:37.431Z,12.90
2023-04-18T05:55:04.313Z,13.00
2023-04-18T05:57:31.260Z,12.85
2023-04-18T05:59:57.850Z,15.73
2023-04-18T06:02:24.570Z,13.85
2023-04-18T06:04:51.663Z,13.15
2023-04-18T06:07:18.417Z,13.57
2023-04-18T06:09:45.027Z,14.43
2023-04-18T06:12:11.562Z,13.48
2023-04-18T06:14:38.251Z,12.60
2023-04-18T06:17:07.393Z,13.23
2023-04-18T06:19:33.947Z,13.27
2023-04-18T06:22:01.843Z,13.25
2023-04-18T06:24:30.141Z,14.63
2023-04-18T06:26:58.215Z,13.75
2023-04-18T06:29:27.330Z,12.88
2023-04-18T06:31:53.949Z,14.07
2023-04-18T06:34:20.559Z,13.00
2023-04-18T06:36:47.219Z,13.05
2023-04-18T06:39:13.740Z,12.65
2023-04-18T06:41:40.357Z,12.52
2023-04-18T06:44:06.913Z,12.20
2023-04-18T06:46:33.610Z,12.23
2023-04-18T06:49:00.548Z,12.15
2023-04-18T06:51:27.625Z,10.93
2023-04-18T06:53:54.338Z,12.10
2023-04-18T06:56:21.537Z,11.33
2023-04-18T06:58:48.684Z,11.15
2023-04-18T07:01:15.292Z,12.50
2023-04-18T07:03:42.124Z,10.93
2023-04-18T07:06:10.624Z,11.48
2023-04-18T07:08:37.655Z,10.50
2023-04-18T07:11:04.291Z,10.45
2023-04-18T07:13:30.861Z,11.10
2023-04-18T07:15:57.625Z,10.38
2023-04-18T07:18:36.674Z,11.25
2023-04-18T07:21:07.891Z,10.63
2023-04-18T07:23:35.160Z,10.55
2023-04-18T07:26:03.007Z,10.95
2023-04-18T07:28:31.314Z,10.55
2023-04-18T07:30:58.671Z,10.45
2023-04-18T07:33:25.655Z,11.13
2023-04-18T07:35:53.276Z,10.68
2023-04-18T07:38:20.160Z,11.57
2023-04-18T07:40:46.687Z,10.05
2023-04-18T07:43:13.304Z,10.40
2023-04-18T07:45:39.917Z,9.47
2023-04-18T07:48:06.660Z,9.63
2023-04-18T07:50:33.246Z,9.38
2023-04-18T07:52:59.779Z,9.80
2023-04-18T07:55:26.385Z,9.68
2023-04-18T07:57:52.930Z,10.20
2023-04-18T08:00:19.761Z,9.68
2023-04-18T08:02:46.591Z,9.20
2023-04-18T08:05:13.441Z,9.48
2023-04-18T08:07:40.134Z,9.80
2023-04-18T08:10:07.179Z,9.00
2023-04-18T08:12:33.755Z,9.23
2023-04-18T08:15:00.295Z,9.00
2023-04-18T08:17:26.865Z,10.07
2023-04-18T08:19:53.428Z,8.95
2023-04-18T08:22:20.012Z,9.07
2023-04-18T08:25:00.952Z,9.60
2023-04-18T08:27:31.503Z,9.43
2023-04-18T08:29:58.342Z,8.77
2023-04-18T08:32:25.082Z,9.77
2023-04-18T08:34:51.707Z,9.57
2023-04-18T08:37:18.420Z,9.13
2023-04-18T08:39:45.186Z,9.65
2023-04-18T08:42:16.444Z,8.57
2023-04-18T08:44:43.352Z,9.02
2023-04-18T08:47:10.089Z,8.40
2023-04-18T08:49:36.665Z,9.50
2023-04-18T08:52:13.550Z,10.23
2023-04-18T08:54:45.365Z,10.95
2023-04-18T08:57:16.634Z,10.15
2023-04-18T08:59:46.772Z,10.23
2023-04-18T09:02:15.762Z,9.20
2023-04-18T09:04:45.338Z,8.07
2023-04-18T09:07:15.959Z,8.00
2023-04-18T09:09:46.095Z,7.72
2023-04-18T09:12:14.897Z,8.00
2023-04-18T09:14:51.779Z,7.93
2023-04-18T09:17:38.614Z,8.55
2023-04-18T09:20:06.397Z,9.02
2023-04-18T09:22:48.531Z,8.30
2023-04-18T09:25:40.118Z,8.07
2023-04-18T09:28:28.577Z,8.50
2023-04-18T09:30:56.863Z,8.80
2023-04-18T09:33:34.125Z,8.88
2023-04-18T09:36:18.170Z,8.43
2023-04-18T09:38:44.805Z,8.20
2023-04-18T09:41:12.362Z,8.50
2023-04-18T09:43:39.407Z,8.40
2023-04-18T09:46:07.403Z,8.15
2023-04-18T09:48:34.292Z,7.50
2023-04-18T09:51:07.495Z,8.60
2023-04-18T09:53:41.832Z,7.72
2023-04-18T09:56:29.733Z,8.32
2023-04-18T09:59:07.270Z,7.68
2023-04-18T10:01:34.782Z,10.65
2023-04-18T10:04:04.328Z,9.90
2023-04-18T10:06:39.819Z,8.05
2023-04-18T10:09:09.096Z,8.10
2023-04-18T10:11:36.537Z,7.65
2023-04-18T10:14:07.892Z,7.95
2023-04-18T10:16:36.321Z,7.40
2023-04-18T10:19:22.967Z,6.63
2023-04-18T10:22:00.448Z,6.78
2023-04-18T10:24:56.768Z,7.55
2023-04-18T10:27:57.844Z,7.28
2023-04-18T10:30:42.315Z,6.73
2023-04-18T10:33:30.456Z,7.05
2023-04-18T10:36:08.804Z,6.07
2023-04-18T10:38:44.960Z,6.38
2023-04-18T10:41:15.132Z,7.50
2023-04-18T10:44:08.425Z,10.00
2023-04-18T10:46:50.889Z,6.82
2023-04-18T10:49:26.813Z,5.85
2023-04-18T10:51:58.820Z,5.63
2023-04-18T10:54:51.021Z,5.72
2023-04-18T10:57:17.913Z,6.53
2023-04-18T10:59:49.013Z,6.75
2023-04-18T11:02:23.313Z,6.72
2023-04-18T11:04:51.732Z,6.10
2023-04-18T11:07:18.471Z,6.15
2023-04-18T11:09:55.025Z,5.53
2023-04-18T11:12:21.556Z,6.40
2023-04-18T11:14:52.076Z,6.00
2023-04-18T11:17:24.157Z,4.90
2023-04-18T11:19:59.074Z,5.55
2023-04-18T11:22:26.056Z,5.27
2023-04-18T11:24:53.147Z,5.40
2023-04-18T11:27:25.204Z,5.75
2023-04-18T11:29:55.149Z,4.95
2023-04-18T11:32:23.566Z,4.93
2023-04-18T11:34:54.546Z,4.67
2023-04-18T11:37:21.756Z,5.75
2023-04-18T11:39:48.307Z,5.38
2023-04-18T11:42:15.052Z,5.07
2023-04-18T11:44:45.841Z,5.70
2023-04-18T11:47:29.695Z,5.40
2023-04-18T11:50:07.266Z,5.80
2023-04-18T11:52:35.592Z,5.38
2023-04-18T11:55:19.570Z,5.50
2023-04-18T11:57:59.800Z,5.80
2023-04-18T12:00:38.655Z,5.17
2023-04-18T12:03:09.060Z,5.82
2023-04-18T12:05:38.510Z,5.72
2023-04-18T12:08:20.188Z,4.88
2023-04-18T12:10:54.365Z,5.63
2023-04-18T12:13:28.348Z,5.30
2023-04-18T12:15:54.989Z,5.00
2023-04-18T12:18:23.383Z,5.95
2023-04-18T12:20:54.043Z,7.07
2023-04-18T12:23:42.557Z,6.60
2023-04-18T12:26:14.517Z,6.43
2023-04-18T12:28:45.110Z,6.32
2023-04-18T12:31:11.788Z,6.75
2023-04-18T12:33:38.387Z,7.70
2023-04-18T12:36:11.227Z,7.53
2023-04-18T12:38:37.805Z,7.97
2023-04-18T12:41:05.575Z,9.20
2023-04-18T12:43:32.455Z,7.80
2023-04-18T12:45:59.635Z,6.28
2023-04-18T12:48:26.166Z,9.30
2023-04-18T12:50:52.739Z,8.10
2023-04-18T12:53:19.267Z,7.00
2023-04-18T12:55:46.305Z,6.45
2023-04-18T12:58:18.523Z,8.70
2023-04-18T13:00:45.159Z,6.28
2023-04-18T13:03:13.396Z,6.33
2023-04-18T13:05:40.346Z,5.65
2023-04-18T13:08:16.047Z,5.97
2023-04-18T13:10:44.788Z,5.72
2023-04-18T13:13:11.379Z,6.18
2023-04-18T13:15:38.288Z,5.57
2023-04-18T13:18:06.636Z,5.63
2023-04-18T13:20:34.445Z,5.18
2023-04-18T13:23:02.780Z,5.18
2023-04-18T13:25:29.455Z,5.35
2023-04-18T13:27:58.524Z,5.87
2023-04-18T13:30:25.461Z,5.68
2023-04-18T13:32:52.072Z,5.45
2023-04-18T13:35:18.729Z,5.68
2023-04-18T13:37:46.268Z,6.45
2023-04-18T13:40:13.312Z,6.90
2023-04-18T13:42:39.907Z,6.45
2023-04-18T13:45:09.944Z,6.82
2023-04-18T13:47:37.150Z,7.05
2023-04-18T13:50:04.103Z,6.88
2023-04-18T13:52:30.648Z,6.70
2023-04-18T13:54:57.179Z,7.22
2023-04-18T13:57:26.091Z,7.65
2023-04-18T13:59:52.706Z,8.07
2023-04-18T14:02:19.421Z,6.97
2023-04-18T14:04:46.605Z,7.30
2023-04-18T14:07:13.251Z,6.70
2023-04-18T14:09:39.806Z,6.93
2023-04-18T14:12:07.118Z,7.20
2023-04-18T14:14:33.697Z,7.85
2023-04-18T14:17:00.378Z,7.20
2023-04-18T14:19:27.425Z,7.68
2023-04-18T14:21:53.953Z,8.43
2023-04-18T14:24:20.601Z,7.60
2023-04-18T14:26:48.111Z,7.40
2023-04-18T14:29:15.002Z,6.80
2023-04-18T14:31:41.949Z,6.82
2023-04-18T14:34:09.887Z,6.90
2023-04-18T14:36:36.998Z,7.05
2023-04-18T14:39:03.950Z,6.80
2023-04-18T14:41:30.554Z,6.83
2023-04-18T14:43:57.082Z,6.30
2023-04-18T14:46:23.627Z,6.93
2023-04-18T14:48:50.278Z,7.85
2023-04-18T14:51:17.063Z,7.93
2023-04-18T14:53:44.562Z,8.17
2023-04-18T14:56:11.449Z,7.72
2023-04-18T14:58:38.157Z,7.72
2023-04-18T15:01:05.188Z,7.75
2023-04-18T15:03:32.325Z,8.07
2023-04-18T15:05:59.100Z,8.03
2023-04-18T15:08:25.701Z,7.35
2023-04-18T15:10:52.226Z,7.55
2023-04-18T15:13:20.924Z,6.60
2023-04-18T15:15:55.156Z,6.25
2023-04-18T15:18:22.055Z,6.47
2023-04-18T15:20:48.654Z,6.35
2023-04-18T15:23:16.022Z,6.78
2023-04-18T15:25:44.591Z,6.63
2023-04-18T15:28:14.656Z,6.35
2023-04-18T15:30:41.174Z,6.70
2023-04-18T15:33:08.247Z,7.15
2023-04-18T15:35:34.895Z,7.20
2023-04-18T15:38:01.621Z,7.25
2023-04-18T15:40:28.125Z,6.75
2023-04-18T15:42:56.138Z,7.40
2023-04-18T15:45:22.701Z,6.90
2023-04-18T15:47:49.292Z,6.80
2023-04-18T15:50:16.402Z,6.70
2023-04-18T15:52:46.214Z,6.75
2023-04-18T15:55:13.498Z,7.17
2023-04-18T15:57:41.889Z,7.63
2023-04-18T16:00:15.975Z,7.63
2023-04-18T16:02:44.485Z,7.40
2023-04-18T16:05:12.545Z,7.97
2023-04-18T16:07:43.029Z,7.43
2023-04-18T16:10:11.232Z,7.82
2023-04-18T16:12:38.736Z,6.88
2023-04-18T16:15:07.014Z,7.07
2023-04-18T16:17:33.598Z,7.25
2023-04-18T16:20:00.240Z,7.47
2023-04-18T16:22:26.893Z,7.03
2023-04-18T16:24:53.444Z,7.28
2023-04-18T16:27:19.977Z,7.47
2023-04-18T16:29:47.326Z,6.90
2023-04-18T16:32:13.932Z,7.63
2023-04-18T16:34:40.469Z,6.45
2023-04-18T16:37:06.978Z,6.97
2023-04-18T16:39:33.677Z,6.90
2023-04-18T16:42:00.183Z,7.60
2023-04-18T16:44:26.735Z,6.43
2023-04-18T16:46:53.335Z,7.68
2023-04-18T16:49:20.608Z,6.80
2023-04-18T16:51:47.188Z,6.93
2023-04-18T16:54:13.939Z,7.22
2023-04-18T16:56:41.480Z,6.70
2023-04-18T16:59:09.471Z,6.05
2023-04-18T17:01:36.334Z,6.18
2023-04-18T17:04:02.999Z,6.38
2023-04-18T17:06:31.280Z,6.47
2023-04-18T17:08:58.820Z,6.73
2023-04-18T17:11:25.568Z,5.40
2023-04-18T17:13:52.165Z,5.97
2023-04-18T17:16:18.777Z,5.72
2023-04-18T17:18:45.327Z,5.80
2023-04-18T17:21:12.692Z,5.60
2023-04-18T17:23:42.680Z,5.13
2023-04-18T17:26:10.133Z,5.55
2023-04-18T17:28:36.723Z,7.30
2023-04-18T17:31:03.876Z,7.03
2023-04-18T17:33:31.265Z,5.87
2023-04-18T17:35:58.327Z,6.93
2023-04-18T17:38:24.963Z,6.20
2023-04-18T17:41:01.292Z,5.78
2023-04-18T17:43:28.085Z,6.10
2023-04-18T17:47:08.613Z,5.70
2023-04-18T17:49:36.128Z,5.47
2023-04-18T17:52:03.570Z,6.68
2023-04-18T17:54:30.368Z,5.47
2023-04-18T17:56:57.802Z,7.97
2023-04-18T17:59:24.366Z,5.63
2023-04-18T18:01:51.033Z,7.75
2023-04-18T18:04:17.858Z,5.88
2023-04-18T18:06:57.208Z,7.78
2023-04-18T18:09:24.084Z,6.43
2023-04-18T18:11:50.584Z,6.97
2023-04-18T18:14:17.107Z,6.25
2023-04-18T18:16:43.720Z,7.05
2023-04-18T18:19:10.391Z,6.30
2023-04-18T18:21:37.134Z,9.75
2023-04-18T18:24:03.883Z,7.03
2023-04-18T18:26:30.970Z,6.10
2023-04-18T18:28:57.518Z,6.60
2023-04-18T18:31:25.163Z,6.35
2023-04-18T18:33:52.183Z,6.55
2023-04-18T18:36:18.703Z,7.00
2023-04-18T18:38:45.382Z,6.35
2023-04-18T18:41:11.878Z,6.22
2023-04-18T18:43:38.407Z,6.80
2023-04-18T18:46:04.938Z,7.85
2023-04-18T18:48:32.875Z,6.00
2023-04-18T18:50:59.438Z,6.20
2023-04-18T18:53:28.739Z,6.50
2023-04-18T18:55:55.615Z,6.20
2023-04-18T18:58:22.133Z,5.97
2023-04-18T19:00:48.726Z,5.73
2023-04-18T19:03:18.455Z,6.28
2023-04-18T19:05:47.912Z,6.63
2023-04-18T19:08:14.607Z,6.43
2023-04-18T19:10:41.651Z,6.22
2023-04-18T19:13:08.194Z,6.60
2023-04-18T19:15:34.890Z,6.65
2023-04-18T19:18:01.735Z,6.47
2023-04-18T19:20:29.229Z,6.40
2023-04-18T19:22:55.900Z,6.75
2023-04-18T19:25:22.624Z,6.90
2023-04-18T19:27:49.166Z,6.15
2023-04-18T19:30:15.809Z,7.15
2023-04-18T19:32:42.452Z,6.68
2023-04-18T19:35:11.974Z,6.85
2023-04-18T19:37:38.601Z,5.63
2023-04-18T19:40:06.952Z,6.45
2023-04-18T19:42:33.539Z,6.22
2023-04-18T19:45:00.440Z,6.38
2023-04-18T19:47:28.147Z,6.57
2023-04-18T19:49:54.650Z,5.53
2023-04-18T19:52:21.183Z,6.45
2023-04-18T19:54:47.729Z,6.25
2023-04-18T19:57:14.252Z,6.15
2023-04-18T19:59:40.806Z,6.03
2023-04-18T20:02:07.346Z,5.40
2023-04-18T20:04:34.377Z,6.00
2023-04-18T20:07:02.521Z,6.63
2023-04-18T20:09:29.131Z,6.03
2023-04-18T20:11:55.679Z,5.88
2023-04-18T20:14:22.298Z,5.97
2023-04-18T20:16:49.844Z,5.85
2023-04-18T20:19:17.838Z,5.78
2023-04-18T20:21:44.567Z,6.18
2023-04-18T20:24:11.113Z,5.80
2023-04-18T20:26:37.635Z,6.00
2023-04-18T20:29:04.355Z,5.82
2023-04-18T20:31:30.842Z,5.72
2023-04-18T20:33:57.346Z,5.97
2023-04-18T20:36:24.526Z,6.47
2023-04-18T20:38:51.078Z,5.80
2023-04-18T20:41:24.230Z,6.47
2023-04-18T20:43:53.792Z,6.22
2023-04-18T20:46:20.585Z,6.25
2023-04-18T20:48:47.103Z,6.47
2023-04-18T20:51:13.632Z,6.33
2023-04-18T20:53:40.330Z,6.45
2023-04-18T20:56:07.018Z,6.90
2023-04-18T20:58:33.529Z,7.20
2023-04-18T21:01:00.066Z,6.60
2023-04-18T21:03:26.828Z,7.33
2023-04-18T21:05:56.137Z,6.55
2023-04-18T21:08:22.659Z,6.85
2023-04-18T21:10:49.272Z,7.28
2023-04-18T21:13:15.824Z,7.57
2023-04-18T21:15:42.842Z,7.10
2023-04-18T21:18:09.528Z,7.55
2023-04-18T21:20:36.942Z,6.88
2023-04-18T21:23:03.662Z,7.43
2023-04-18T21:25:30.217Z,7.80
2023-04-18T21:27:56.817Z,6.90
2023-04-18T21:30:23.459Z,7.20
2023-04-18T21:32:51.616Z,7.65
2023-04-18T21:35:20.192Z,7.68
2023-04-18T21:37:47.941Z,7.90
2023-04-18T21:40:14.773Z,8.57
2023-04-18T21:42:41.431Z,8.02
2023-04-18T21:45:08.585Z,8.60
2023-04-18T21:47:35.163Z,8.70
2023-04-18T21:50:01.756Z,7.88
2023-04-18T21:52:28.280Z,7.80
2023-04-18T21:54:54.791Z,8.77
2023-04-18T21:57:21.629Z,8.25
2023-04-18T21:59:48.285Z,8.43
2023-04-18T22:02:14.928Z,8.98
2023-04-18T22:04:42.914Z,8.73
2023-04-18T22:07:09.929Z,9.25
2023-04-18T22:09:36.574Z,8.82
2023-04-18T22:12:04.417Z,9.10
2023-04-18T22:14:34.155Z,9.48
2023-04-18T22:17:04.916Z,9.67
2023-04-18T22:19:31.548Z,8.98
2023-04-18T22:21:58.447Z,8.98
2023-04-18T22:24:26.096Z,9.65
2023-04-18T22:26:53.093Z,10.10
2023-04-18T22:29:19.693Z,9.30
2023-04-18T22:31:46.290Z,9.63
2023-04-18T22:34:13.043Z,9.75
2023-04-18T22:36:39.748Z,9.05
2023-04-18T22:39:06.539Z,9.88
2023-04-18T22:41:33.059Z,9.57
2023-04-18T22:43:59.580Z,10.15
2023-04-18T22:46:27.443Z,10.02
2023-04-18T22:48:54.370Z,9.63
2023-04-18T22:51:20.912Z,9.95
2023-04-18T22:53:47.398Z,9.50
2023-04-18T22:56:13.951Z,10.20
2023-04-18T22:58:40.600Z,10.48
2023-04-18T23:01:07.335Z,9.30
2023-04-18T23:03:34.745Z,10.48
2023-04-18T23:06:01.593Z,9.40
2023-04-18T23:08:28.392Z,10.55
2023-04-18T23:10:54.931Z,10.63
2023-04-18T23:13:21.588Z,11.05
2023-04-18T23:15:48.210Z,10.43
2023-04-18T23:18:17.884Z,10.73
2023-04-18T23:20:44.390Z,11.50
2023-04-18T23:23:10.913Z,11.52
2023-04-18T23:25:37.495Z,10.75
2023-04-18T23:28:04.205Z,10.55
2023-04-18T23:30:30.800Z,10.03
2023-04-18T23:32:57.350Z,10.60
2023-04-18T23:35:24.496Z,11.02
2023-04-18T23:37:51.044Z,11.57
2023-04-18T23:40:17.577Z,11.25
2023-04-18T23:42:44.494Z,11.23
2023-04-18T23:45:11.478Z,10.77
2023-04-18T23:47:38.000Z,11.13
2023-04-18T23:50:05.308Z,9.98
2023-04-18T23:52:31.833Z,11.07
2023-04-18T23:55:01.753Z,10.40
2023-04-18T23:57:28.288Z,10.95
2023-04-18T23:59:54.826Z,11.45
